Time;durP1;ratioP1;P1;durP2;ratioP2;P2;SDS_P1;SDS_P2;PMS_P1;PMS_P2;Temp;Humidity;BMP_temperature;BMP_pressure;BME280_temperature;BME280_humidity;BME280_pressure;Samples;Min_cycle;Max_cycle;Signal;HPM_P1;HPM_P2
2024/02/18 00:00:04;;;;;;;11.07;7.22;;;;;;;10.70;50.75;102884.75;5008004;28;20057;-78
2024/02/18 00:02:36;;;;;;;12.02;7.80;;;;;;;10.70;50.40;102881.13;5014569;28;20126;-76
2024/02/18 00:05:05;;;;;;;9.38;6.85;;;;;;;10.69;50.57;102880.25;5008093;28;20042;-79
2024/02/18 00:07:35;;;;;;;9.95;7.35;;;;;;;10.69;50.55;102868.41;5014481;28;20101;-77
2024/02/18 00:10:03;;;;;;;10.50;7.68;;;;;;;10.67;50.51;102867.59;5012123;28;20393;-76
2024/02/18 00:12:31;;;;;;;11.18;7.63;;;;;;;10.68;50.52;102874.84;5014378;28;20061;-77
2024/02/18 00:14:59;;;;;;;10.43;7.75;;;;;;;10.67;50.59;102876.72;4969807;28;20055;-77
2024/02/18 00:17:29;;;;;;;11.30;7.28;;;;;;;10.67;51.14;102879.44;5007805;28;20041;-76
2024/02/18 00:19:59;;;;;;;11.07;7.57;;;;;;;10.68;50.87;102881.22;4989944;28;20071;-77
2024/02/18 00:22:27;;;;;;;9.75;7.25;;;;;;;10.67;50.57;102878.56;5010325;28;20554;-77
2024/02/18 00:24:55;;;;;;;13.00;6.90;;;;;;;10.67;50.35;102879.44;5004453;28;20041;-77
2024/02/18 00:27:23;;;;;;;9.07;6.80;;;;;;;10.68;50.54;102872.13;5005540;28;20557;-77
2024/02/18 00:29:51;;;;;;;11.18;6.57;;;;;;;10.68;50.95;102864.78;5014655;28;20115;-77
2024/02/18 00:32:19;;;;;;;9.63;6.35;;;;;;;10.67;50.81;102871.22;4988995;28;20045;-77
2024/02/18 00:34:47;;;;;;;8.88;6.35;;;;;;;10.68;51.07;102864.78;5013649;28;20120;-77
2024/02/18 00:37:17;;;;;;;11.05;6.95;;;;;;;10.71;50.96;102866.47;4992036;28;20061;-77
2024/02/18 00:39:45;;;;;;;9.77;6.38;;;;;;;10.68;50.59;102862.06;4989942;28;20049;-77
2024/02/18 00:42:13;;;;;;;10.63;6.72;;;;;;;10.69;50.73;102868.41;4991209;28;20073;-76
2024/02/18 00:44:41;;;;;;;9.75;6.30;;;;;;;10.69;50.75;102854.72;4984792;28;20081;-77
2024/02/18 00:47:09;;;;;;;8.60;6.32;;;;;;;10.70;50.86;102845.53;4990162;28;20077;-77
2024/02/18 00:49:37;;;;;;;11.18;6.88;;;;;;;10.70;50.58;102849.16;4985223;28;20050;-77
2024/02/18 00:52:05;;;;;;;9.07;6.55;;;;;;;10.71;51.21;102839.09;4990882;28;20476;-77
2024/02/18 00:54:35;;;;;;;8.43;6.40;;;;;;;10.73;51.26;102842.63;4982500;28;20043;-76
2024/02/18 00:57:03;;;;;;;8.68;6.40;;;;;;;10.72;51.15;102844.50;5065130;23;20080;-75
2024/02/18 00:59:31;;;;;;;10.43;6.80;;;;;;;10.72;50.88;102840.88;5015010;28;20053;-77
2024/02/18 01:01:59;;;;;;;10.70;6.93;;;;;;;10.73;51.22;102831.69;5015250;28;20592;-77
2024/02/18 01:04:27;;;;;;;10.25;6.68;;;;;;;10.74;51.03;102844.38;5013589;28;20142;-77
2024/02/18 01:06:55;;;;;;;10.13;6.75;;;;;;;10.74;50.62;102836.16;5006634;28;20102;-77
2024/02/18 01:09:25;;;;;;;9.38;6.43;;;;;;;10.73;50.64;102832.53;5012156;28;20038;-77
2024/02/18 01:11:55;;;;;;;10.25;6.72;;;;;;;10.75;50.63;102835.19;5006694;28;20081;-77
2024/02/18 01:14:23;;;;;;;9.68;7.00;;;;;;;10.72;50.67;102836.28;5031967;28;20046;-77
2024/02/18 01:16:51;;;;;;;11.65;7.65;;;;;;;10.74;50.84;102834.31;5011874;28;20100;-77
2024/02/18 01:19:20;;;;;;;10.50;6.80;;;;;;;10.72;50.69;102830.81;5005008;28;20054;-76
2024/02/18 01:21:48;;;;;;;9.48;7.25;;;;;;;10.73;51.19;102832.53;5007623;28;20064;-77
2024/02/18 01:24:16;;;;;;;9.50;6.70;;;;;;;10.72;50.78;102827.19;5029237;28;20049;-77
2024/02/18 01:26:44;;;;;;;9.13;7.07;;;;;;;10.73;50.79;102835.28;5011052;28;20042;-78
2024/02/18 01:29:14;;;;;;;9.07;6.82;;;;;;;10.75;51.09;102832.44;5028076;28;20046;-77
2024/02/18 01:31:42;;;;;;;10.30;7.15;;;;;;;10.73;50.75;102826.22;5035285;28;20075;-76
2024/02/18 01:34:10;;;;;;;10.75;6.72;;;;;;;10.73;50.94;102831.69;5004240;28;20052;-77
2024/02/18 01:36:39;;;;;;;9.63;6.90;;;;;;;10.73;50.71;102827.06;5027928;28;20109;-76
2024/02/18 01:39:07;;;;;;;13.00;7.03;;;;;;;10.72;50.53;102824.44;5005337;28;20054;-77
2024/02/18 01:41:35;;;;;;;8.95;6.45;;;;;;;10.71;50.67;102812.59;5003594;28;20394;-75
2024/02/18 01:44:03;;;;;;;11.80;7.07;;;;;;;10.71;50.25;102811.72;5007812;28;20117;-76
2024/02/18 01:46:33;;;;;;;11.95;7.43;;;;;;;10.70;50.26;102819.03;5004372;28;20505;-78
2024/02/18 01:49:01;;;;;;;10.20;6.97;;;;;;;10.67;50.09;102807.38;5020215;28;20073;-77
2024/02/18 01:51:30;;;;;;;10.73;7.03;;;;;;;10.67;50.41;102800.03;5030598;28;20056;-77
2024/02/18 01:53:58;;;;;;;11.52;6.65;;;;;;;10.67;50.21;102801.88;5008212;28;20497;-77
2024/02/18 01:56:26;;;;;;;12.30;7.60;;;;;;;10.64;50.79;102793.88;5008213;28;20096;-77
2024/02/18 01:58:54;;;;;;;11.82;7.40;;;;;;;10.66;50.28;102791.91;5003531;28;20058;-78
2024/02/18 02:01:22;;;;;;;9.95;7.22;;;;;;;10.65;50.43;102787.44;5008633;28;20049;-77
2024/02/18 02:03:54;;;;;;;10.77;7.57;;;;;;;10.65;50.70;102776.47;5021907;28;20046;-78
2024/02/18 02:06:23;;;;;;;10.13;7.60;;;;;;;10.64;50.70;102780.19;5013963;28;20042;-77
2024/02/18 02:08:52;;;;;;;10.75;7.22;;;;;;;10.63;50.50;102775.66;5024653;28;20705;-77
2024/02/18 02:11:20;;;;;;;10.45;7.40;;;;;;;10.62;50.85;102773.91;5006993;28;20065;-76
2024/02/18 02:13:48;;;;;;;11.27;7.85;;;;;;;10.59;50.14;102773.09;4999842;28;20031;-76
2024/02/18 02:16:17;;;;;;;11.32;7.45;;;;;;;10.59;50.21;102769.47;5023996;28;20093;-77
2024/02/18 02:18:44;;;;;;;10.80;7.93;;;;;;;10.58;50.54;102775.91;5023705;28;20034;-77
2024/02/18 02:21:14;;;;;;;10.32;7.43;;;;;;;10.57;50.72;102775.03;4990843;28;20138;-77
2024/02/18 02:23:42;;;;;;;12.10;7.70;;;;;;;10.55;50.51;102773.38;5005420;28;20041;-78
2024/02/18 02:26:12;;;;;;;11.27;7.72;;;;;;;10.55;50.69;102778.84;4998861;28;20576;-78
2024/02/18 02:28:47;;;;;;;11.75;8.07;;;;;;;10.55;50.51;102777.00;5001878;28;20428;-77
2024/02/18 02:31:17;;;;;;;10.63;7.15;;;;;;;10.52;50.66;102768.91;5013819;28;20441;-77
2024/02/18 02:33:45;;;;;;;10.77;7.45;;;;;;;10.52;50.84;102762.56;5010388;28;20073;-77
2024/02/18 02:36:13;;;;;;;11.52;7.35;;;;;;;10.51;50.62;102763.53;5029846;28;20107;-76
2024/02/18 02:38:41;;;;;;;9.35;7.13;;;;;;;10.51;50.90;102753.44;5008585;28;20081;-77
2024/02/18 02:41:09;;;;;;;12.63;7.35;;;;;;;10.50;50.61;102748.94;5015736;28;20053;-77
2024/02/18 02:43:37;;;;;;;10.77;7.70;;;;;;;10.51;50.45;102744.34;5017482;28;20042;-77
2024/02/18 02:46:05;;;;;;;11.15;7.32;;;;;;;10.51;50.39;102738.88;5027467;28;20042;-77
2024/02/18 02:48:34;;;;;;;12.30;7.05;;;;;;;10.50;50.38;102734.38;5005742;28;20085;-77
2024/02/18 02:51:03;;;;;;;10.52;7.32;;;;;;;10.51;50.44;102744.34;5001117;28;20046;-77
2024/02/18 02:53:31;;;;;;;11.20;7.30;;;;;;;10.48;50.54;102739.06;5015913;28;20054;-77
2024/02/18 02:56:00;;;;;;;11.00;7.47;;;;;;;10.48;50.51;102745.41;5014302;28;20525;-76
2024/02/18 02:58:28;;;;;;;10.18;7.35;;;;;;;10.48;50.54;102741.81;5027848;28;20049;-76
2024/02/18 03:00:56;;;;;;;10.30;7.45;;;;;;;10.48;51.00;102747.28;5004865;28;20069;-76
2024/02/18 03:03:25;;;;;;;10.43;7.65;;;;;;;10.48;50.82;102750.03;5002177;28;20038;-77
2024/02/18 03:05:54;;;;;;;10.73;7.20;;;;;;;10.48;50.46;102742.66;5012266;28;20061;-75
2024/02/18 03:08:22;;;;;;;13.18;7.68;;;;;;;10.48;50.49;102750.03;5000978;28;20042;-78
2024/02/18 03:10:51;;;;;;;9.82;6.63;;;;;;;10.47;50.73;102746.41;5001701;28;20062;-77
2024/02/18 03:13:19;;;;;;;10.25;7.15;;;;;;;10.47;50.87;102742.78;4992233;28;20141;-78
2024/02/18 03:15:47;;;;;;;9.57;6.97;;;;;;;10.48;50.93;102742.66;5005574;28;20129;-77
2024/02/18 03:18:15;;;;;;;10.00;6.85;;;;;;;10.47;50.28;102738.19;5017497;28;20048;-76
2024/02/18 03:20:44;;;;;;;9.73;7.60;;;;;;;10.47;50.49;102735.47;5012027;28;20046;-77
2024/02/18 03:23:13;;;;;;;9.68;7.15;;;;;;;10.49;50.35;102732.59;5019931;28;20046;-76
2024/02/18 03:25:43;;;;;;;9.95;6.90;;;;;;;10.47;50.33;102734.56;5007146;28;20038;-78
2024/02/18 03:28:11;;;;;;;8.98;6.65;;;;;;;10.48;50.68;102739.06;5017617;28;20050;-77
2024/02/18 03:30:50;;;;;;;9.55;6.80;;;;;;;10.48;50.38;102742.66;5005278;28;20056;-77
2024/02/18 03:33:18;;;;;;;10.52;6.88;;;;;;;10.47;50.39;102737.31;5015921;28;20070;-77
2024/02/18 03:35:47;;;;;;;11.40;7.35;;;;;;;10.48;50.59;102739.06;5002925;28;20046;-77
2024/02/18 03:38:16;;;;;;;10.10;6.75;;;;;;;10.48;50.34;102737.19;5002787;28;20047;-77
2024/02/18 03:40:44;;;;;;;8.88;6.47;;;;;;;10.47;50.36;102737.31;5007651;28;20076;-77
2024/02/18 03:43:12;;;;;;;8.90;6.28;;;;;;;10.48;50.72;102741.81;5001319;28;20129;-76
2024/02/18 03:45:41;;;;;;;7.50;5.90;;;;;;;10.48;50.50;102742.66;5003662;28;20055;-76
2024/02/18 03:48:09;;;;;;;9.15;6.28;;;;;;;10.47;50.26;102738.19;5000763;28;20038;-76
2024/02/18 03:50:37;;;;;;;9.38;6.40;;;;;;;10.48;50.72;102741.81;5000744;28;20045;-77
2024/02/18 03:53:05;;;;;;;9.38;6.75;;;;;;;10.47;50.49;102735.47;4998622;28;20133;-78
2024/02/18 03:55:34;;;;;;;8.88;5.88;;;;;;;10.48;50.14;102733.59;5003151;28;20121;-77
2024/02/18 03:58:02;;;;;;;9.10;6.22;;;;;;;10.45;49.78;102725.56;5015895;28;20045;-78
2024/02/18 04:00:30;;;;;;;8.82;6.28;;;;;;;10.43;49.99;102717.41;5014519;28;20057;-78
2024/02/18 04:02:58;;;;;;;7.57;5.45;;;;;;;10.44;49.94;102715.56;5003754;28;20042;-77
2024/02/18 04:05:26;;;;;;;9.13;6.18;;;;;;;10.41;49.75;102705.66;4999477;28;20125;-78
2024/02/18 04:07:54;;;;;;;8.70;5.70;;;;;;;10.40;49.84;102701.16;5023896;28;20041;-77
2024/02/18 04:10:22;;;;;;;8.45;5.90;;;;;;;10.39;49.89;102699.44;5001966;28;20046;-78
2024/02/18 04:12:52;;;;;;;8.80;5.93;;;;;;;10.39;49.37;102701.28;5022227;28;20046;-77
2024/02/18 04:15:20;;;;;;;7.13;5.15;;;;;;;10.36;49.81;102695.97;5025986;28;20037;-77
2024/02/18 04:17:48;;;;;;;8.13;5.55;;;;;;;10.34;49.63;102681.47;5007219;28;20043;-77
2024/02/18 04:20:16;;;;;;;6.97;4.97;;;;;;;10.32;49.34;102678.81;5019140;28;20045;-76
2024/02/18 04:22:44;;;;;;;8.65;4.55;;;;;;;10.31;49.12;102685.31;5002480;28;20081;-77
2024/02/18 04:25:12;;;;;;;8.10;5.22;;;;;;;10.28;49.30;102680.00;5023094;28;20416;-78
2024/02/18 04:27:40;;;;;;;8.30;5.05;;;;;;;10.27;49.39;102672.75;5013325;28;20073;-77
2024/02/18 04:30:10;;;;;;;7.57;4.55;;;;;;;10.28;49.08;102668.16;5027419;28;20140;-77
2024/02/18 04:32:38;;;;;;;6.78;4.60;;;;;;;10.24;48.83;102668.31;5005395;28;20125;-77
2024/02/18 04:35:07;;;;;;;7.70;5.07;;;;;;;10.23;49.37;102663.81;5004708;28;20070;-76
2024/02/18 04:37:35;;;;;;;6.35;4.70;;;;;;;10.22;49.28;102653.88;5014475;28;20162;-77
2024/02/18 04:40:04;;;;;;;7.13;4.75;;;;;;;10.23;49.10;102652.03;5008943;28;20165;-77
2024/02/18 04:42:32;;;;;;;7.05;5.00;;;;;;;10.21;48.70;102657.56;4999725;28;20058;-77
2024/02/18 04:45:00;;;;;;;7.00;4.38;;;;;;;10.21;48.47;102652.09;5003421;28;20096;-76
2024/02/18 04:47:31;;;;;;;6.72;4.47;;;;;;;10.22;48.81;102651.13;5018150;28;20052;-78
2024/02/18 04:50:03;;;;;;;7.97;4.47;;;;;;;10.21;48.80;102634.81;4994736;28;20073;-77
2024/02/18 04:52:31;;;;;;;;;;;;;;;9.95;48.71;102643.63;5024009;28;20077;-76
2024/02/18 04:54:59;;;;;;;5.68;3.72;;;;;;;10.15;48.88;102629.69;4999481;28;19928;-77
2024/02/18 04:57:27;;;;;;;6.22;4.10;;;;;;;10.18;48.39;102622.19;5007305;28;20038;-77
2024/02/18 04:59:55;;;;;;;7.65;4.13;;;;;;;10.18;48.56;102627.66;5003623;28;20050;-76
2024/02/18 05:02:23;;;;;;;6.82;3.78;;;;;;;10.18;48.61;102624.03;5005825;28;20055;-76
2024/02/18 05:04:53;;;;;;;6.07;3.78;;;;;;;10.17;48.02;102623.13;5001583;28;20037;-77
2024/02/18 05:07:21;;;;;;;6.03;3.63;;;;;;;10.15;48.31;102626.97;5021884;28;20098;-77
2024/02/18 05:09:49;;;;;;;5.70;3.83;;;;;;;10.15;48.27;102619.59;5008349;28;20047;-77
2024/02/18 05:12:17;;;;;;;5.53;3.63;;;;;;;10.15;48.12;102611.41;5005238;28;20069;-77
2024/02/18 05:14:44;;;;;;;6.00;4.20;;;;;;;10.15;48.08;102621.50;5002369;28;20543;-77
2024/02/18 05:17:12;;;;;;;6.22;3.80;;;;;;;10.15;47.96;102622.34;5006501;28;20564;-77
2024/02/18 05:19:40;;;;;;;7.07;3.90;;;;;;;10.15;47.83;102613.28;5013979;28;20046;-78
2024/02/18 05:22:09;;;;;;;6.63;3.75;;;;;;;10.16;47.78;102610.44;5020897;28;20109;-78
2024/02/18 05:24:38;;;;;;;6.68;4.00;;;;;;;10.15;47.96;102614.13;5001779;28;20125;-77
2024/02/18 05:27:06;;;;;;;4.93;3.42;;;;;;;10.13;48.32;102607.88;5020450;28;20109;-78
2024/02/18 05:29:34;;;;;;;6.05;4.30;;;;;;;10.14;48.36;102619.72;5003963;28;20564;-77
2024/02/18 05:32:02;;;;;;;7.32;3.92;;;;;;;10.14;48.35;102615.13;5006241;28;20082;-77
2024/02/18 05:34:30;;;;;;;6.82;4.30;;;;;;;10.14;47.76;102617.00;5018496;28;20066;-77
2024/02/18 05:36:58;;;;;;;5.38;4.07;;;;;;;10.13;47.74;102610.63;5018747;28;20109;-76
2024/02/18 05:39:27;;;;;;;6.13;4.13;;;;;;;10.14;47.79;102609.66;5016176;28;20050;-77
2024/02/18 05:41:56;;;;;;;6.63;4.18;;;;;;;10.13;47.77;102618.84;5015141;28;20050;-76
2024/02/18 05:44:25;;;;;;;6.22;4.32;;;;;;;10.12;48.04;102618.91;5027725;28;20056;-76
2024/02/18 05:46:52;;;;;;;6.28;3.92;;;;;;;10.10;47.62;102608.06;5022969;28;20026;-77
2024/02/18 05:49:21;;;;;;;5.65;3.97;;;;;;;10.10;47.63;102613.53;5019182;28;20502;-77
2024/02/18 05:51:52;;;;;;;6.05;4.32;;;;;;;10.11;47.55;102612.56;5021281;28;20114;-77
2024/02/18 05:54:22;;;;;;;6.47;4.45;;;;;;;10.09;47.66;102608.13;5021430;28;20034;-78
2024/02/18 05:56:51;;;;;;;6.40;3.75;;;;;;;10.09;47.34;102602.66;5000719;28;20132;-78
2024/02/18 05:59:19;;;;;;;5.78;3.83;;;;;;;10.06;47.52;102601.03;5022587;28;20046;-77
2024/02/18 06:01:47;;;;;;;5.05;3.53;;;;;;;10.07;47.33;102593.69;5003306;28;20358;-77
2024/02/18 06:04:15;;;;;;;6.88;4.00;;;;;;;10.06;47.12;102594.66;4981624;28;20058;-77
2024/02/18 06:06:43;;;;;;;6.43;3.90;;;;;;;10.05;47.65;102587.41;4991742;28;20133;-76
2024/02/18 06:09:11;;;;;;;5.90;3.78;;;;;;;10.04;47.53;102591.13;5000901;28;20373;-76
2024/02/18 06:11:39;;;;;;;6.00;3.58;;;;;;;10.03;47.42;102594.81;4991270;28;20061;-75
2024/02/18 06:14:08;;;;;;;5.45;3.67;;;;;;;10.04;47.45;102582.91;4986688;28;20061;-75
2024/02/18 06:16:37;;;;;;;6.00;3.50;;;;;;;10.02;47.47;102577.53;4989194;28;20058;-76
2024/02/18 06:19:05;;;;;;;4.72;3.20;;;;;;;10.01;47.32;102566.66;5011539;28;20054;-75
2024/02/18 06:21:33;;;;;;;5.95;3.70;;;;;;;10.00;47.49;102568.53;5001933;28;20441;-75
2024/02/18 06:24:01;;;;;;;5.70;3.40;;;;;;;9.99;47.32;102564.03;5009171;28;20052;-75
2024/02/18 06:26:29;;;;;;;5.97;3.40;;;;;;;9.99;47.43;102563.16;4989885;28;20041;-75
2024/02/18 06:28:58;;;;;;;5.95;3.45;;;;;;;9.99;46.90;102560.44;5004202;28;20104;-75
2024/02/18 06:31:27;;;;;;;5.95;3.65;;;;;;;9.99;47.16;102553.06;5010142;28;20041;-75
2024/02/18 06:33:55;;;;;;;5.32;3.58;;;;;;;9.97;47.30;102557.78;4994283;28;20050;-75
2024/02/18 06:36:25;;;;;;;5.65;3.10;;;;;;;9.97;46.90;102560.53;4986512;28;20545;-75
2024/02/18 06:38:53;;;;;;;5.65;3.50;;;;;;;9.97;46.84;102559.63;4993808;28;20068;-75
2024/02/18 06:41:20;;;;;;;5.22;3.25;;;;;;;9.96;47.05;102558.75;4990320;28;20048;-75
2024/02/18 06:43:48;;;;;;;5.43;3.50;;;;;;;9.94;47.31;102544.28;5005102;28;20568;-75
2024/02/18 06:46:16;;;;;;;5.35;3.53;;;;;;;9.96;47.29;102552.41;5009461;28;20188;-75
2024/02/18 06:48:48;;;;;;;5.45;3.53;;;;;;;9.96;47.06;102545.06;4989483;28;20500;-75
2024/02/18 06:51:16;;;;;;;7.45;3.88;;;;;;;9.93;46.80;102536.16;4984673;28;20074;-75
2024/02/18 06:53:45;;;;;;;6.70;3.55;;;;;;;9.94;47.12;102538.81;4996817;28;20116;-75
2024/02/18 06:56:12;;;;;;;6.32;3.55;;;;;;;9.94;47.28;102535.19;4986911;28;20127;-75
2024/02/18 06:58:41;;;;;;;5.90;3.50;;;;;;;9.91;46.94;102527.16;5008743;28;20074;-75
2024/02/18 07:01:09;;;;;;;7.15;3.25;;;;;;;9.92;46.87;102524.31;4988645;28;20478;-75
2024/02/18 07:03:37;;;;;;;5.90;3.30;;;;;;;9.92;47.19;102524.31;4985233;28;20058;-75
2024/02/18 07:06:06;;;;;;;5.38;3.13;;;;;;;9.92;46.46;102520.72;4980604;28;20141;-75
2024/02/18 07:08:34;;;;;;;4.80;2.83;;;;;;;9.90;47.03;102525.41;4998206;28;20100;-76
2024/02/18 07:11:02;;;;;;;5.35;2.75;;;;;;;9.90;46.81;102509.00;4991111;28;20065;-75
2024/02/18 07:13:30;;;;;;;5.43;2.83;;;;;;;9.88;47.10;102510.94;5010229;28;20073;-77
2024/02/18 07:15:58;;;;;;;5.22;3.13;;;;;;;9.90;47.37;102511.75;5020598;28;20478;-75
2024/02/18 07:18:26;;;;;;;5.65;3.35;;;;;;;9.89;47.45;102519.06;4988584;28;20046;-75
2024/02/18 07:20:54;;;;;;;5.07;2.90;;;;;;;9.89;47.21;102505.38;4986136;28;20066;-75
2024/02/18 07:23:24;;;;;;;6.45;3.53;;;;;;;9.91;47.21;102503.41;4994121;28;20050;-75
2024/02/18 07:25:51;;;;;;;5.82;3.63;;;;;;;9.89;47.39;102499.03;5006720;28;20045;-76
2024/02/18 07:28:19;;;;;;;6.88;3.45;;;;;;;9.89;47.48;102491.72;4998279;28;20514;-76
2024/02/18 07:30:47;;;;;;;4.78;3.55;;;;;;;9.90;47.42;102495.31;5009370;28;20442;-76
2024/02/18 07:33:15;;;;;;;5.75;3.55;;;;;;;9.88;47.02;102480.84;4991044;28;20056;-76
2024/02/18 07:35:43;;;;;;;5.95;3.53;;;;;;;9.88;47.07;102492.69;5003744;28;20512;-75
2024/02/18 07:38:11;;;;;;;5.80;3.10;;;;;;;9.87;47.12;102487.28;5001546;28;20502;-74
2024/02/18 07:40:41;;;;;;;6.88;3.47;;;;;;;9.87;46.79;102485.44;5007048;28;20104;-76
2024/02/18 07:43:08;;;;;;;6.53;3.20;;;;;;;9.85;47.40;102477.31;4986294;28;20053;-76
2024/02/18 07:45:36;;;;;;;6.68;3.10;;;;;;;9.85;47.47;102477.31;5007945;28;20058;-79
2024/02/18 07:48:05;;;;;;;6.75;3.00;;;;;;;9.87;47.43;102490.03;5011387;28;20048;-76
2024/02/18 07:50:34;;;;;;;5.82;3.28;;;;;;;9.85;47.04;102477.31;4992788;28;20131;-77
2024/02/18 07:53:02;;;;;;;5.70;3.10;;;;;;;9.84;47.41;102463.72;5027302;28;20168;-77
2024/02/18 07:55:31;;;;;;;6.03;2.97;;;;;;;9.85;47.05;102465.50;4999030;28;20054;-77
2024/02/18 07:58:00;;;;;;;5.88;3.30;;;;;;;9.85;47.31;102463.66;5005807;28;20046;-78
2024/02/18 08:00:29;;;;;;;6.68;3.45;;;;;;;9.84;47.36;102456.41;5002344;28;20422;-79
2024/02/18 08:02:57;;;;;;;6.30;3.10;;;;;;;9.84;47.43;102452.78;5023900;28;20229;-78
2024/02/18 08:05:25;;;;;;;6.53;3.10;;;;;;;9.84;47.50;102459.16;4998966;28;20125;-79
2024/02/18 08:07:53;;;;;;;5.25;2.95;;;;;;;9.84;47.30;102450.94;5010352;28;20069;-76
2024/02/18 08:10:21;;;;;;;5.78;3.42;;;;;;;9.84;47.00;102450.06;5010265;28;20046;-77
2024/02/18 08:12:49;;;;;;;6.40;3.33;;;;;;;9.81;46.94;102442.94;4999942;28;20889;-79
2024/02/18 08:15:21;;;;;;;5.82;3.35;;;;;;;9.84;46.64;102439.13;5014484;28;20046;-78
2024/02/18 08:17:49;;;;;;;5.78;3.58;;;;;;;9.82;46.87;102438.34;5007337;28;20044;-79
2024/02/18 08:20:17;;;;;;;5.68;3.15;;;;;;;9.82;47.08;102427.41;5012067;28;20057;-78
2024/02/18 08:22:46;;;;;;;6.63;3.58;;;;;;;9.82;46.97;102430.16;5004938;28;20061;-78
2024/02/18 08:25:14;;;;;;;6.43;3.58;;;;;;;9.81;46.87;102428.38;5003791;28;20054;-79
2024/02/18 08:27:42;;;;;;;6.40;3.47;;;;;;;9.77;46.69;102427.69;5001165;28;20040;-79
2024/02/18 08:30:10;;;;;;;7.15;3.35;;;;;;;9.78;46.96;102417.63;5003044;28;20105;-79
2024/02/18 08:32:40;;;;;;;6.13;3.60;;;;;;;9.78;47.00;102407.56;5004260;28;20039;-78
2024/02/18 08:35:08;;;;;;;7.43;3.63;;;;;;;9.75;47.16;102409.59;4997861;28;20515;-80
2024/02/18 08:37:37;;;;;;;6.57;3.03;;;;;;;9.74;46.94;102397.78;4995665;28;20057;-80
2024/02/18 08:40:07;;;;;;;6.05;3.13;;;;;;;9.75;46.98;102401.38;5017079;28;20225;-80
2024/02/18 08:42:35;;;;;;;4.45;3.00;;;;;;;9.74;47.38;102400.50;5024788;28;20042;-80
2024/02/18 08:45:04;;;;;;;5.82;3.25;;;;;;;9.75;47.37;102393.19;4998615;28;20049;-79
2024/02/18 08:47:32;;;;;;;8.05;3.60;;;;;;;9.73;47.01;102390.56;5003182;28;20134;-79
2024/02/18 08:50:02;;;;;;;6.22;3.20;;;;;;;9.75;47.31;102380.41;4998715;28;20046;-78
2024/02/18 08:52:31;;;;;;;5.38;3.28;;;;;;;9.74;46.91;102383.25;5014842;28;20041;-79
2024/02/18 08:54:59;;;;;;;7.30;3.60;;;;;;;9.75;47.38;102382.25;5003600;28;20088;-79
2024/02/18 08:57:27;;;;;;;6.00;3.28;;;;;;;9.75;47.46;102379.50;5006042;28;20098;-80
2024/02/18 08:59:55;;;;;;;5.03;3.05;;;;;;;9.76;47.03;102375.81;5030553;28;20054;-80
2024/02/18 09:02:23;;;;;;;5.70;2.80;;;;;;;9.75;46.81;102368.56;5006937;28;20058;-78
2024/02/18 09:04:51;;;;;;;5.88;3.10;;;;;;;9.76;47.57;102371.22;5004239;28;20042;-79
2024/02/18 09:07:20;;;;;;;5.93;2.90;;;;;;;9.79;47.10;102367.44;5006256;28;20052;-79
2024/02/18 09:09:48;;;;;;;5.03;2.88;;;;;;;9.78;47.14;102360.19;5020622;28;20152;-80
2024/02/18 09:12:16;;;;;;;5.35;3.10;;;;;;;9.79;47.42;102360.13;5007540;28;20068;-80
2024/02/18 09:14:44;;;;;;;5.40;3.28;;;;;;;9.80;47.02;102358.25;5006112;28;20043;-81
2024/02/18 09:17:12;;;;;;;4.90;3.00;;;;;;;9.80;46.71;102350.94;5008079;28;20046;-79
2024/02/18 09:19:40;;;;;;;5.78;2.97;;;;;;;9.81;47.05;102344.50;5009444;28;20116;-81
2024/02/18 09:22:08;;;;;;;5.10;2.88;;;;;;;9.80;46.85;102348.22;5010443;28;20066;-80
2024/02/18 09:24:38;;;;;;;4.40;2.50;;;;;;;9.83;47.19;102337.06;5017749;28;20113;-80
2024/02/18 09:27:06;;;;;;;4.78;2.58;;;;;;;9.83;47.13;102339.78;5012801;28;20070;-78
2024/02/18 09:29:34;;;;;;;4.63;2.70;;;;;;;9.83;47.16;102333.44;5012136;28;20100;-78
2024/02/18 09:32:02;;;;;;;5.53;3.25;;;;;;;9.85;47.25;102328.78;5029530;28;20581;-78
2024/02/18 09:34:30;;;;;;;4.70;2.65;;;;;;;9.85;46.71;102329.66;5013245;28;20046;-78
2024/02/18 09:36:59;;;;;;;7.40;2.90;;;;;;;9.84;46.58;102319.69;5007231;28;20088;-78
2024/02/18 09:39:27;;;;;;;5.15;2.90;;;;;;;9.85;46.88;102313.25;5004989;28;20043;-79
2024/02/18 09:41:58;;;;;;;4.80;2.75;;;;;;;9.87;46.19;102309.53;5012685;28;20456;-78
2024/02/18 09:44:28;;;;;;;5.40;2.80;;;;;;;9.86;46.85;102303.19;5005668;28;20046;-79
2024/02/18 09:46:59;;;;;;;5.25;2.50;;;;;;;9.87;46.35;102301.34;5015740;28;20374;-78
2024/02/18 09:49:29;;;;;;;4.10;2.70;;;;;;;9.85;46.40;102291.38;5004050;28;20058;-79
2024/02/18 09:51:59;;;;;;;5.25;2.38;;;;;;;9.84;46.45;102286.00;5004455;28;20412;-79
2024/02/18 09:54:32;;;;;;;4.25;2.88;;;;;;;9.83;46.09;102278.75;5006852;28;20074;-78
2024/02/18 09:57:03;;;;;;;3.95;2.60;;;;;;;9.82;46.03;102269.69;5013059;28;20045;-79
2024/02/18 09:59:31;;;;;;;4.32;2.75;;;;;;;9.80;46.20;102266.19;5023236;28;20136;-78
2024/02/18 10:02:00;;;;;;;4.05;2.60;;;;;;;9.81;46.73;102261.59;5025366;28;20042;-78
2024/02/18 10:04:29;;;;;;;5.38;2.60;;;;;;;9.77;46.26;102262.75;5005423;28;20074;-79
2024/02/18 10:06:57;;;;;;;4.28;2.70;;;;;;;9.77;46.52;102266.34;5005479;28;20145;-79
2024/02/18 10:09:26;;;;;;;5.05;2.60;;;;;;;9.76;46.39;102274.66;5006784;28;20425;-79
2024/02/18 10:11:54;;;;;;;5.85;2.75;;;;;;;9.75;46.13;102261.94;5010170;28;20100;-78
2024/02/18 10:14:25;;;;;;;4.03;2.40;;;;;;;9.76;46.35;102252.78;5024008;28;20137;-78
2024/02/18 10:16:53;;;;;;;5.97;2.80;;;;;;;9.73;46.08;102245.66;5032825;28;20629;-78
2024/02/18 10:19:25;;;;;;;6.10;3.03;;;;;;;9.75;46.67;102251.91;4998161;28;20065;-77
2024/02/18 10:21:53;;;;;;;5.90;2.80;;;;;;;9.72;46.53;102248.50;5000197;28;20053;-74
2024/02/18 10:24:23;;;;;;;6.85;2.88;;;;;;;9.73;46.43;102242.94;4988899;28;20129;-74
2024/02/18 10:26:52;;;;;;;4.78;2.67;;;;;;;9.75;46.56;102246.44;5019653;28;20487;-74
2024/02/18 10:29:20;;;;;;;4.22;2.65;;;;;;;9.75;46.75;102248.28;5005281;28;20141;-72
2024/02/18 10:31:50;;;;;;;4.85;2.47;;;;;;;9.76;46.83;102255.50;5009825;28;20085;-72
2024/02/18 10:34:19;;;;;;;4.15;2.55;;;;;;;9.74;47.01;102239.19;5016980;28;20049;-74
2024/02/18 10:36:49;;;;;;;4.32;2.78;;;;;;;9.76;47.04;102244.56;5020567;28;20041;-75
2024/02/18 10:39:17;;;;;;;4.30;2.75;;;;;;;9.74;47.23;102257.50;5014789;28;20457;-75
2024/02/18 10:41:53;;;;;;;4.35;2.40;;;;;;;9.77;46.35;102232.66;5015002;28;20049;-75
2024/02/18 10:44:21;;;;;;;4.40;2.50;;;;;;;9.75;47.06;102237.34;5014105;28;20533;-76
2024/02/18 10:46:54;;;;;;;5.90;2.63;;;;;;;9.76;46.82;102225.44;5022178;28;20080;-77
2024/02/18 10:49:37;;;;;;;5.38;2.45;;;;;;;9.77;46.87;102224.47;5001212;28;20118;-75
2024/02/18 10:52:10;;;;;;;4.18;2.42;;;;;;;9.74;46.98;102217.31;5010968;28;20042;-77
2024/02/18 10:54:46;;;;;;;3.92;2.30;;;;;;;9.75;47.24;102220.94;5006005;28;20038;-74
2024/02/18 10:57:16;;;;;;;7.13;2.72;;;;;;;9.75;47.02;102212.75;4988323;28;20090;-75
2024/02/18 10:59:56;;;;;;;4.38;2.10;;;;;;;9.76;47.32;102204.44;5006590;28;20045;-76
2024/02/18 11:02:29;;;;;;;4.40;2.55;;;;;;;9.74;47.45;102200.06;5014810;28;20256;-75
2024/02/18 11:04:58;;;;;;;5.53;2.50;;;;;;;9.72;47.18;102194.69;4989150;28;20108;-76
2024/02/18 11:07:27;;;;;;;6.15;2.70;;;;;;;9.71;47.27;102195.66;4995732;28;20414;-75
2024/02/18 11:09:57;;;;;;;4.70;2.42;;;;;;;9.72;47.46;102200.16;5010071;28;20128;-74
2024/02/18 11:12:26;;;;;;;4.50;2.60;;;;;;;9.70;47.75;102198.50;4990442;28;20043;-74
2024/02/18 11:14:56;;;;;;;4.40;2.17;;;;;;;9.69;47.74;102197.63;5012903;28;20041;-75
2024/02/18 11:17:26;;;;;;;5.28;2.53;;;;;;;9.68;47.88;102194.97;4990904;28;20463;-75
2024/02/18 11:19:55;;;;;;;5.07;2.70;;;;;;;9.67;48.25;102196.81;5011075;28;20033;-75
2024/02/18 11:22:24;;;;;;;4.65;2.50;;;;;;;9.65;48.03;102185.13;5008251;28;20055;-75
2024/02/18 11:24:52;;;;;;;4.22;2.50;;;;;;;9.63;48.40;102192.53;4999770;28;20145;-74
2024/02/18 11:27:20;;;;;;;3.75;2.45;;;;;;;9.63;48.16;102187.06;4995067;28;20061;-75
2024/02/18 11:29:50;;;;;;;3.92;2.10;;;;;;;9.63;48.16;102208.94;4988553;28;20533;-74
2024/02/18 11:32:19;;;;;;;4.78;2.58;;;;;;;9.60;48.31;102200.91;4991792;28;20054;-76